• Join FlightAware (Why Join?)
  • Login
  • US Flag 
02:58PM EDT


 

Airport Tracker/Info


-or-


 

Live Flight TrackerFlight Track Log ✈ EWG3433 ✈ 24-Apr-2013 ✈ EGCC / MAN - EDDL / DUS

Flight Track Log - Related Links

Times and Time Zones

All times are in EDT time to prevent confusion due to time zone crossing. See the EWG3433 flight status page for this flight to view local times or setup timezone preferences in your user account.

Time Position Orientation Groundspeed Altitude Reporting Facility
EDT Latitude Longitude Course Direction KTS MPH feet Rate Location/Type
10:39AM 53.2476 -1.6973 107° East  Level Estimated
10:40AM 53.2116 -1.5054 107° East  Level Estimated
10:41AM 53.1753 -1.3139 107° East  Level Estimated
10:42AM 53.1387 -1.1226 108° East  Level Estimated
10:43AM 53.1018 -0.9317 108° East  Level Estimated
10:44AM 53.0645 -0.7411 108° East  Level Estimated
10:45AM 53.0270 -0.5508 108° East  Level Estimated
10:46AM 52.9892 -0.3609 108° East  Level Estimated
10:47AM 52.9510 -0.1713 108° East  Level Estimated
10:48AM 52.9126 0.0180 109° East  Level Estimated
10:49AM 52.8739 0.2069 109° East  Level Estimated
10:50AM 52.8348 0.3955 109° East  Level Estimated
10:51AM 52.7955 0.5838 109° East  Level Estimated
10:52AM 52.7559 0.7717 109° East  Level Estimated
10:53AM 52.7159 0.9592 109° East  Level Estimated
10:54AM 52.6757 1.1464 109° East  Level Estimated
10:55AM 52.6352 1.3333 110° East  Level Estimated
10:56AM 52.5944 1.5198 110° East  Level Estimated
10:57AM 52.5533 1.7060 110° East  Level Estimated
10:58AM 52.5119 1.8918 110° East  Level Estimated
10:59AM 52.4702 2.0773 110° East  Level Estimated
11:00AM 52.4282 2.2625 110° East  Level Estimated
11:01AM 52.3860 2.4472 110° East  Level Estimated
11:02AM 52.3434 2.6316 111° Southeast  Level Estimated
11:03AM 52.3006 2.8157 111° Southeast  Level Estimated
11:04AM 52.2575 2.9994 111° Southeast  Level Estimated
11:05AM 52.2141 3.1828 111° Southeast  Level Estimated
11:06AM 52.1704 3.3658 111° Southeast  Level Estimated
11:07AM 52.1264 3.5484 111° Southeast  Level Estimated
11:08AM 52.0821 3.7306 111° Southeast  Level Estimated
11:09AM 52.0376 3.9125 112° Southeast  Level Estimated
11:10AM 51.9928 4.0941 112° Southeast  Level Estimated
11:11AM 51.9477 4.2753 112° Southeast  Level Estimated
11:12AM 51.9023 4.4561 112° Southeast  Level Estimated
11:13AM 51.8567 4.6365 112° Southeast  Level Estimated
11:14AM 51.8108 4.8166 112° Southeast  Level Estimated
11:15AM 51.7646 4.9963 112° Southeast  Level Estimated
11:16AM 51.7181 5.1757 113° Southeast  Level Estimated
11:17AM 51.6713 5.3546 113° Southeast  Level Estimated
11:18AM 51.6243 5.5332 113° Southeast  Level Estimated
11:19AM 51.5770 5.7115 113° Southeast  Level Estimated
11:20AM 51.5295 5.8893 113° Southeast  Level Estimated
11:21AM 51.4817 6.0668 113° Southeast  Level Estimated
11:22AM 51.4336 6.2439 113° Southeast  Level Estimated
11:23AM 51.3852 6.4207 114° Southeast  Level Estimated
11:24AM 51.3366 6.5970 114° Southeast  Level Estimated
11:25AM 51.2895 6.7668 114° Southeast  Level Estimated
11:26AM 51.2895 6.7668 314° West  Level Estimated
11:27AM 51.2895 6.7668 46° Northeast  Level Estimated
11:28AM 51.2895 6.7668 314° West  Level Estimated
11:29AM 51.2895 6.7668 46° Northeast  Level Estimated
11:30AM 51.2895 6.7668 314° West  Level Estimated
11:31AM 51.2895 6.7668 46° Northeast  Level Estimated
11:32AM 51.2895 6.7668 314° West  Level Estimated
11:33AM 51.2895 6.7668 46° Northeast  Level Estimated
11:34AM 51.2895 6.7668 314° West  Level Estimated
11:35AM 51.2895 6.7668 46° Northeast  Level Estimated
11:36AM 51.2895 6.7668 314° West  Level Estimated
11:37AM 51.2895 6.7668 46° Northeast  Level Estimated
11:38AM 51.2895 6.7668 314° West  Level Estimated
11:39AM 51.2895 6.7668 46° Northeast  Level Estimated
11:40AM 51.2895 6.7668 314° West  Level Estimated
11:41AM 51.2895 6.7668 46° Northeast  Level Estimated